sensor_id;sensor_type;location;lat;lon;timestamp;pressure;altitude;pressure_sealevel;temperature;humidity
9189;BME280;34313;50.780;6.084;2023-11-19T00:00:54;98989.78;;;11.85;100.00
9189;BME280;34313;50.780;6.084;2023-11-19T00:03:20;98989.16;;;11.81;100.00
9189;BME280;34313;50.780;6.084;2023-11-19T00:05:45;98981.22;;;11.81;100.00
9189;BME280;34313;50.780;6.084;2023-11-19T00:08:11;98977.03;;;11.79;100.00
9189;BME280;34313;50.780;6.084;2023-11-19T00:10:36;98962.47;;;11.73;100.00
9189;BME280;34313;50.780;6.084;2023-11-19T00:13:01;98969.41;;;11.87;100.00
9189;BME280;34313;50.780;6.084;2023-11-19T00:15:28;98974.06;;;11.83;100.00
9189;BME280;34313;50.780;6.084;2023-11-19T00:17:53;98977.75;;;11.81;100.00
9189;BME280;34313;50.780;6.084;2023-11-19T00:20:19;98973.94;;;11.85;100.00
9189;BME280;34313;50.780;6.084;2023-11-19T00:22:47;98959.38;;;11.79;100.00
9189;BME280;34313;50.780;6.084;2023-11-19T00:25:13;98969.41;;;11.87;100.00
9189;BME280;34313;50.780;6.084;2023-11-19T00:27:39;98943.75;;;11.76;100.00
9189;BME280;34313;50.780;6.084;2023-11-19T00:30:08;98949.22;;;11.86;100.00
9189;BME280;34313;50.780;6.084;2023-11-19T00:32:33;98966.34;;;11.93;100.00
9189;BME280;34313;50.780;6.084;2023-11-19T00:34:59;98942.03;;;11.88;100.00
9189;BME280;34313;50.780;6.084;2023-11-19T00:37:25;98955.06;;;11.91;100.00
9189;BME280;34313;50.780;6.084;2023-11-19T00:39:50;98965.91;;;11.99;100.00
9189;BME280;34313;50.780;6.084;2023-11-19T00:42:17;98961.13;;;12.04;100.00
9189;BME280;34313;50.780;6.084;2023-11-19T00:44:42;98961.25;;;11.90;100.00
9189;BME280;34313;50.780;6.084;2023-11-19T00:47:07;98963.88;;;12.03;100.00
9189;BME280;34313;50.780;6.084;2023-11-19T00:49:33;98943.09;;;11.98;100.00
9189;BME280;34313;50.780;6.084;2023-11-19T00:51:59;98936.16;;;12.08;100.00
9189;BME280;34313;50.780;6.084;2023-11-19T00:54:24;98955.16;;;12.14;100.00
9189;BME280;34313;50.780;6.084;2023-11-19T00:56:51;98957.81;;;12.14;100.00
9189;BME280;34313;50.780;6.084;2023-11-19T00:59:17;98960.84;;;12.20;100.00
9189;BME280;34313;50.780;6.084;2023-11-19T01:01:43;98954.59;;;12.21;100.00
9189;BME280;34313;50.780;6.084;2023-11-19T01:04:08;98958.56;;;12.27;100.00
9189;BME280;34313;50.780;6.084;2023-11-19T01:06:33;98955.22;;;12.25;100.00
9189;BME280;34313;50.780;6.084;2023-11-19T01:08:59;98937.06;;;12.20;100.00
9189;BME280;34313;50.780;6.084;2023-11-19T01:11:25;98912.91;;;12.14;100.00
9189;BME280;34313;50.780;6.084;2023-11-19T01:13:51;98931.81;;;12.32;100.00
9189;BME280;34313;50.780;6.084;2023-11-19T01:16:17;98932.63;;;12.21;100.00
9189;BME280;34313;50.780;6.084;2023-11-19T01:18:44;98954.78;;;12.31;100.00
9189;BME280;34313;50.780;6.084;2023-11-19T01:21:09;98948.16;;;12.25;100.00
9189;BME280;34313;50.780;6.084;2023-11-19T01:23:35;98936.72;;;12.25;100.00
9189;BME280;34313;50.780;6.084;2023-11-19T01:26:00;98950.44;;;12.30;100.00
9189;BME280;34313;50.780;6.084;2023-11-19T01:28:26;98961.00;;;12.30;100.00
9189;BME280;34313;50.780;6.084;2023-11-19T01:30:51;98959.56;;;12.26;100.00
9189;BME280;34313;50.780;6.084;2023-11-19T01:33:17;98959.34;;;12.29;100.00
9189;BME280;34313;50.780;6.084;2023-11-19T01:35:42;98946.34;;;12.26;100.00
9189;BME280;34313;50.780;6.084;2023-11-19T01:38:07;98949.47;;;12.31;100.00
9189;BME280;34313;50.780;6.084;2023-11-19T01:40:36;98958.56;;;12.27;100.00
9189;BME280;34313;50.780;6.084;2023-11-19T01:43:02;98947.06;;;12.28;100.00
9189;BME280;34313;50.780;6.084;2023-11-19T01:45:29;98959.34;;;12.29;100.00
9189;BME280;34313;50.780;6.084;2023-11-19T01:47:59;98947.69;;;12.32;100.00
9189;BME280;34313;50.780;6.084;2023-11-19T01:50:25;98947.06;;;12.28;100.00
9189;BME280;34313;50.780;6.084;2023-11-19T01:52:54;98949.09;;;12.24;100.00
9189;BME280;34313;50.780;6.084;2023-11-19T01:55:20;98937.81;;;12.22;100.00
9189;BME280;34313;50.780;6.084;2023-11-19T01:57:46;98940.22;;;12.25;100.00
9189;BME280;34313;50.780;6.084;2023-11-19T02:00:12;98934.06;;;12.25;100.00
9189;BME280;34313;50.780;6.084;2023-11-19T02:02:39;98932.84;;;12.18;100.00
9189;BME280;34313;50.780;6.084;2023-11-19T02:05:06;98931.41;;;12.14;100.00
9189;BME280;34313;50.780;6.084;2023-11-19T02:07:31;98911.69;;;12.06;100.00
9189;BME280;34313;50.780;6.084;2023-11-19T02:09:57;98928.25;;;12.08;100.00
9189;BME280;34313;50.780;6.084;2023-11-19T02:12:25;98911.44;;;12.09;100.00
9189;BME280;34313;50.780;6.084;2023-11-19T02:14:50;98913.22;;;12.09;100.00
9189;BME280;34313;50.780;6.084;2023-11-19T02:17:29;98903.91;;;11.92;100.00
9189;BME280;34313;50.780;6.084;2023-11-19T02:19:59;98916.44;;;12.01;100.00
9189;BME280;34313;50.780;6.084;2023-11-19T02:22:24;98927.22;;;11.98;100.00
9189;BME280;34313;50.780;6.084;2023-11-19T02:24:52;98935.38;;;11.95;100.00
9189;BME280;34313;50.780;6.084;2023-11-19T02:30:11;98910.56;;;11.98;100.00
9189;BME280;34313;50.780;6.084;2023-11-19T02:32:36;98923.19;;;12.05;100.00
9189;BME280;34313;50.780;6.084;2023-11-19T02:35:06;98909.03;;;12.06;100.00
9189;BME280;34313;50.780;6.084;2023-11-19T02:37:33;98914.53;;;12.03;100.00
9189;BME280;34313;50.780;6.084;2023-11-19T02:39:59;98912.13;;;12.00;100.00
9189;BME280;34313;50.780;6.084;2023-11-19T02:42:34;98919.41;;;11.97;100.00
9189;BME280;34313;50.780;6.084;2023-11-19T02:44:59;98918.06;;;11.91;100.00
9189;BME280;34313;50.780;6.084;2023-11-19T02:47:25;98919.44;;;11.84;100.00
9189;BME280;34313;50.780;6.084;2023-11-19T02:49:50;98920.28;;;11.84;100.00
9189;BME280;34313;50.780;6.084;2023-11-19T02:52:15;98915.56;;;11.77;100.00
9189;BME280;34313;50.780;6.084;2023-11-19T02:54:42;98921.59;;;11.79;100.00
9189;BME280;34313;50.780;6.084;2023-11-19T02:57:08;98918.38;;;11.86;100.00
9189;BME280;34313;50.780;6.084;2023-11-19T02:59:38;98918.81;;;11.93;100.00
9189;BME280;34313;50.780;6.084;2023-11-19T03:02:08;98903.78;;;11.94;100.00
9189;BME280;34313;50.780;6.084;2023-11-19T03:04:42;98884.66;;;11.90;100.00
9189;BME280;34313;50.780;6.084;2023-11-19T03:07:09;98891.44;;;11.94;100.00
9189;BME280;34313;50.780;6.084;2023-11-19T03:09:34;98885.41;;;11.92;100.00
9189;BME280;34313;50.780;6.084;2023-11-19T03:12:05;98905.50;;;11.95;100.00
9189;BME280;34313;50.780;6.084;2023-11-19T03:14:33;98896.72;;;11.94;100.00
9189;BME280;34313;50.780;6.084;2023-11-19T03:16:59;98896.38;;;11.99;100.00
9189;BME280;34313;50.780;6.084;2023-11-19T03:19:24;98886.94;;;12.07;100.00
9189;BME280;34313;50.780;6.084;2023-11-19T03:21:52;98875.81;;;12.15;100.00
9189;BME280;34313;50.780;6.084;2023-11-19T03:24:17;98871.13;;;12.19;100.00
9189;BME280;34313;50.780;6.084;2023-11-19T03:26:42;98890.03;;;12.25;100.00
9189;BME280;34313;50.780;6.084;2023-11-19T03:29:08;98892.53;;;12.27;100.00
9189;BME280;34313;50.780;6.084;2023-11-19T03:31:33;98896.75;;;12.29;100.00
9189;BME280;34313;50.780;6.084;2023-11-19T03:33:58;98900.84;;;12.34;100.00
9189;BME280;34313;50.780;6.084;2023-11-19T03:36:23;98896.16;;;12.37;100.00
9189;BME280;34313;50.780;6.084;2023-11-19T03:38:49;98889.66;;;12.30;100.00
9189;BME280;34313;50.780;6.084;2023-11-19T03:41:14;98890.16;;;12.35;100.00
9189;BME280;34313;50.780;6.084;2023-11-19T03:43:40;98889.44;;;12.33;100.00
9189;BME280;34313;50.780;6.084;2023-11-19T03:46:19;98886.41;;;12.26;100.00
9189;BME280;34313;50.780;6.084;2023-11-19T03:48:45;98902.53;;;12.35;100.00
9189;BME280;34313;50.780;6.084;2023-11-19T03:51:12;98906.13;;;12.34;100.00
9189;BME280;34313;50.780;6.084;2023-11-19T03:53:41;98885.78;;;12.23;100.00
9189;BME280;34313;50.780;6.084;2023-11-19T03:56:07;98900.44;;;12.27;100.00
9189;BME280;34313;50.780;6.084;2023-11-19T03:58:34;98898.50;;;12.18;100.00
9189;BME280;34313;50.780;6.084;2023-11-19T04:01:00;98898.84;;;12.13;100.00
9189;BME280;34313;50.780;6.084;2023-11-19T04:03:26;98899.69;;;12.14;100.00
9189;BME280;34313;50.780;6.084;2023-11-19T04:05:51;98900.41;;;12.16;100.00
9189;BME280;34313;50.780;6.084;2023-11-19T04:08:16;98903.78;;;12.18;100.00
9189;BME280;34313;50.780;6.084;2023-11-19T04:10:41;98905.47;;;12.19;100.00
9189;BME280;34313;50.780;6.084;2023-11-19T04:13:07;98896.34;;;12.12;100.00
9189;BME280;34313;50.780;6.084;2023-11-19T04:15:32;98917.47;;;12.12;100.00
9189;BME280;34313;50.780;6.084;2023-11-19T04:17:57;98927.28;;;12.09;100.00
9189;BME280;34313;50.780;6.084;2023-11-19T04:20:23;98896.47;;;11.97;100.00
9189;BME280;34313;50.780;6.084;2023-11-19T04:22:50;98908.84;;;11.97;100.00
9189;BME280;34313;50.780;6.084;2023-11-19T04:25:16;98912.03;;;11.89;100.00
9189;BME280;34313;50.780;6.084;2023-11-19T04:27:41;98915.13;;;11.83;100.00
9189;BME280;34313;50.780;6.084;2023-11-19T04:30:07;98917.09;;;11.68;100.00
9189;BME280;34313;50.780;6.084;2023-11-19T04:32:35;98924.91;;;11.69;100.00
9189;BME280;34313;50.780;6.084;2023-11-19T04:35:01;98922.78;;;11.62;100.00
9189;BME280;34313;50.780;6.084;2023-11-19T04:37:26;98936.34;;;11.57;100.00
9189;BME280;34313;50.780;6.084;2023-11-19T04:39:51;98924.13;;;11.43;100.00
9189;BME280;34313;50.780;6.084;2023-11-19T04:42:17;98937.06;;;11.46;100.00
9189;BME280;34313;50.780;6.084;2023-11-19T04:44:43;98922.63;;;11.39;100.00
9189;BME280;34313;50.780;6.084;2023-11-19T04:47:08;98912.63;;;11.31;100.00
9189;BME280;34313;50.780;6.084;2023-11-19T04:49:40;98926.88;;;11.29;100.00
9189;BME280;34313;50.780;6.084;2023-11-19T04:52:05;98919.59;;;11.20;100.00
9189;BME280;34313;50.780;6.084;2023-11-19T04:54:30;98918.56;;;11.22;100.00
9189;BME280;34313;50.780;6.084;2023-11-19T04:56:56;98915.78;;;11.37;100.00
9189;BME280;34313;50.780;6.084;2023-11-19T04:59:21;98901.88;;;11.22;100.00
9189;BME280;34313;50.780;6.084;2023-11-19T05:01:47;98930.91;;;11.34;100.00
9189;BME280;34313;50.780;6.084;2023-11-19T05:04:14;98922.13;;;11.34;100.00
9189;BME280;34313;50.780;6.084;2023-11-19T05:06:40;98917.28;;;11.28;100.00
9189;BME280;34313;50.780;6.084;2023-11-19T05:09:05;98927.00;;;11.27;100.00
9189;BME280;34313;50.780;6.084;2023-11-19T05:11:33;98940.69;;;11.32;100.00
9189;BME280;34313;50.780;6.084;2023-11-19T05:13:59;98940.56;;;11.34;100.00
9189;BME280;34313;50.780;6.084;2023-11-19T05:16:24;98932.59;;;11.23;100.00
9189;BME280;34313;50.780;6.084;2023-11-19T05:18:50;98942.59;;;11.30;100.00
9189;BME280;34313;50.780;6.084;2023-11-19T05:21:15;98940.81;;;11.31;100.00
9189;BME280;34313;50.780;6.084;2023-11-19T05:23:42;98947.13;;;11.28;100.00
9189;BME280;34313;50.780;6.084;2023-11-19T05:26:08;98942.84;;;11.27;100.00
9189;BME280;34313;50.780;6.084;2023-11-19T05:28:37;98958.22;;;11.33;100.00
9189;BME280;34313;50.780;6.084;2023-11-19T05:31:03;98941.53;;;11.20;100.00
9189;BME280;34313;50.780;6.084;2023-11-19T05:33:28;98963.28;;;11.37;100.00
9189;BME280;34313;50.780;6.084;2023-11-19T05:35:54;98958.84;;;11.37;100.00
9189;BME280;34313;50.780;6.084;2023-11-19T05:38:19;98942.81;;;11.40;100.00
9189;BME280;34313;50.780;6.084;2023-11-19T05:40:46;98930.22;;;11.44;100.00
9189;BME280;34313;50.780;6.084;2023-11-19T05:43:13;98946.66;;;11.60;100.00
9189;BME280;34313;50.780;6.084;2023-11-19T05:45:40;98942.09;;;11.62;100.00
9189;BME280;34313;50.780;6.084;2023-11-19T05:48:05;98951.50;;;11.66;100.00
9189;BME280;34313;50.780;6.084;2023-11-19T05:50:30;98967.41;;;11.78;100.00
9189;BME280;34313;50.780;6.084;2023-11-19T05:52:55;98963.63;;;11.82;100.00
9189;BME280;34313;50.780;6.084;2023-11-19T05:55:21;98951.81;;;11.75;100.00
9189;BME280;34313;50.780;6.084;2023-11-19T05:57:48;98975.00;;;11.95;100.00
9189;BME280;34313;50.780;6.084;2023-11-19T06:00:14;98963.69;;;11.93;100.00
9189;BME280;34313;50.780;6.084;2023-11-19T06:02:40;98969.84;;;11.81;100.00
9189;BME280;34313;50.780;6.084;2023-11-19T06:05:06;98971.06;;;11.88;100.00
9189;BME280;34313;50.780;6.084;2023-11-19T06:07:32;98970.13;;;11.89;100.00
9189;BME280;34313;50.780;6.084;2023-11-19T06:09:58;98971.06;;;11.88;100.00
9189;BME280;34313;50.780;6.084;2023-11-19T06:12:23;98975.31;;;11.78;100.00
9189;BME280;34313;50.780;6.084;2023-11-19T06:14:48;98963.00;;;11.65;100.00
9189;BME280;34313;50.780;6.084;2023-11-19T06:17:13;98961.44;;;11.63;100.00
9189;BME280;34313;50.780;6.084;2023-11-19T06:19:39;98948.03;;;11.53;100.00
9189;BME280;34313;50.780;6.084;2023-11-19T06:22:04;98950.88;;;11.50;100.00
9189;BME280;34313;50.780;6.084;2023-11-19T06:24:29;98963.69;;;11.43;100.00
9189;BME280;34313;50.780;6.084;2023-11-19T06:26:55;98959.03;;;11.34;100.00
9189;BME280;34313;50.780;6.084;2023-11-19T06:29:21;98961.28;;;11.40;100.00
9189;BME280;34313;50.780;6.084;2023-11-19T06:31:47;98950.00;;;11.38;100.00
9189;BME280;34313;50.780;6.084;2023-11-19T06:34:15;98981.31;;;11.56;100.00
9189;BME280;34313;50.780;6.084;2023-11-19T06:36:41;98965.28;;;11.46;100.00
9189;BME280;34313;50.780;6.084;2023-11-19T06:39:08;98973.50;;;11.54;100.00
9189;BME280;34313;50.780;6.084;2023-11-19T06:41:34;98975.41;;;11.52;100.00
9189;BME280;34313;50.780;6.084;2023-11-19T06:43:59;98981.31;;;11.56;100.00
9189;BME280;34313;50.780;6.084;2023-11-19T06:46:24;98962.31;;;11.50;100.00
9189;BME280;34313;50.780;6.084;2023-11-19T06:48:50;98984.47;;;11.61;100.00
9189;BME280;34313;50.780;6.084;2023-11-19T06:51:15;98977.50;;;11.60;100.00
9189;BME280;34313;50.780;6.084;2023-11-19T06:53:42;98973.06;;;11.47;100.00
9189;BME280;34313;50.780;6.084;2023-11-19T06:56:38;98991.56;;;11.47;100.00
9189;BME280;34313;50.780;6.084;2023-11-19T06:59:04;98971.28;;;11.48;100.00
9189;BME280;34313;50.780;6.084;2023-11-19T07:01:34;98974.34;;;11.42;100.00
9189;BME280;34313;50.780;6.084;2023-11-19T07:04:00;98989.66;;;11.49;100.00
9189;BME280;34313;50.780;6.084;2023-11-19T07:06:29;98993.63;;;11.55;100.00
9189;BME280;34313;50.780;6.084;2023-11-19T07:08:55;98980.59;;;11.53;100.00
9189;BME280;34313;50.780;6.084;2023-11-19T07:11:20;98989.84;;;11.59;100.00
9189;BME280;34313;50.780;6.084;2023-11-19T07:13:45;98974.22;;;11.56;100.00
9189;BME280;34313;50.780;6.084;2023-11-19T07:16:14;98968.00;;;11.57;100.00
9189;BME280;34313;50.780;6.084;2023-11-19T07:18:39;98982.56;;;11.63;100.00
9189;BME280;34313;50.780;6.084;2023-11-19T07:21:05;98980.44;;;11.55;100.00
9189;BME280;34313;50.780;6.084;2023-11-19T07:23:30;98995.13;;;11.59;100.00
9189;BME280;34313;50.780;6.084;2023-11-19T07:25:56;99004.97;;;11.57;100.00
9189;BME280;34313;50.780;6.084;2023-11-19T07:28:21;99013.41;;;11.49;100.00
9189;BME280;34313;50.780;6.084;2023-11-19T07:30:47;99019.66;;;11.48;100.00
9189;BME280;34313;50.780;6.084;2023-11-19T07:33:12;98998.84;;;11.44;100.00
9189;BME280;34313;50.780;6.084;2023-11-19T07:35:39;99011.72;;;11.48;100.00
9189;BME280;34313;50.780;6.084;2023-11-19T07:38:04;99021.97;;;11.40;100.00
9189;BME280;34313;50.780;6.084;2023-11-19T07:40:30;99014.91;;;11.28;100.00
9189;BME280;34313;50.780;6.084;2023-11-19T07:42:55;99014.25;;;11.24;100.00
9189;BME280;34313;50.780;6.084;2023-11-19T07:45:21;99006.66;;;11.20;100.00
9189;BME280;34313;50.780;6.084;2023-11-19T07:47:46;99025.66;;;11.25;100.00
9189;BME280;34313;50.780;6.084;2023-11-19T07:50:11;99013.00;;;11.17;100.00
9189;BME280;34313;50.780;6.084;2023-11-19T07:52:39;99030.81;;;11.26;100.00
9189;BME280;34313;50.780;6.084;2023-11-19T07:55:04;99023.34;;;11.33;100.00
9189;BME280;34313;50.780;6.084;2023-11-19T07:57:30;99017.63;;;11.26;100.00
9189;BME280;34313;50.780;6.084;2023-11-19T07:59:57;99018.25;;;11.30;100.00
9189;BME280;34313;50.780;6.084;2023-11-19T08:02:22;99029.66;;;11.43;100.00
9189;BME280;34313;50.780;6.084;2023-11-19T08:04:49;99030.38;;;11.58;100.00
9189;BME280;34313;50.780;6.084;2023-11-19T08:07:18;99047.25;;;11.68;100.00
9189;BME280;34313;50.780;6.084;2023-11-19T08:09:44;99062.34;;;11.92;100.00
9189;BME280;34313;50.780;6.084;2023-11-19T08:12:09;99039.09;;;11.84;100.00
9189;BME280;34313;50.780;6.084;2023-11-19T08:14:35;99035.00;;;11.93;100.00
9189;BME280;34313;50.780;6.084;2023-11-19T08:17:00;99028.31;;;12.00;100.00
9189;BME280;34313;50.780;6.084;2023-11-19T08:19:26;99013.34;;;12.25;100.00
9189;BME280;34313;50.780;6.084;2023-11-19T08:21:51;99033.25;;;12.42;100.00
9189;BME280;34313;50.780;6.084;2023-11-19T08:24:16;99046.47;;;12.66;100.00
9189;BME280;34313;50.780;6.084;2023-11-19T08:26:42;99039.28;;;12.79;100.00
9189;BME280;34313;50.780;6.084;2023-11-19T08:29:07;99042.66;;;12.81;100.00
9189;BME280;34313;50.780;6.084;2023-11-19T08:31:32;99030.09;;;12.96;99.22
9189;BME280;34313;50.780;6.084;2023-11-19T08:33:58;99020.63;;;13.05;98.66
9189;BME280;34313;50.780;6.084;2023-11-19T08:36:23;99035.06;;;13.23;97.16
9189;BME280;34313;50.780;6.084;2023-11-19T08:38:48;99032.72;;;13.32;96.23
9189;BME280;34313;50.780;6.084;2023-11-19T08:41:14;99027.19;;;13.46;95.31
9189;BME280;34313;50.780;6.084;2023-11-19T08:43:39;99034.78;;;13.51;94.70
9189;BME280;34313;50.780;6.084;2023-11-19T08:46:09;99033.22;;;13.48;93.90
9189;BME280;34313;50.780;6.084;2023-11-19T08:48:35;99032.25;;;13.49;92.92
9189;BME280;34313;50.780;6.084;2023-11-19T08:51:00;99041.41;;;13.68;92.66
9189;BME280;34313;50.780;6.084;2023-11-19T08:53:26;99030.72;;;13.69;91.04
9189;BME280;34313;50.780;6.084;2023-11-19T08:55:51;99043.94;;;13.80;90.81
9189;BME280;34313;50.780;6.084;2023-11-19T08:58:16;99040.53;;;13.90;90.26
9189;BME280;34313;50.780;6.084;2023-11-19T09:00:43;99043.31;;;13.88;90.16
9189;BME280;34313;50.780;6.084;2023-11-19T09:03:08;99050.28;;;14.00;89.41
9189;BME280;34313;50.780;6.084;2023-11-19T09:05:34;99049.34;;;14.02;88.82
9189;BME280;34313;50.780;6.084;2023-11-19T09:08:03;99045.97;;;13.99;88.57
9189;BME280;34313;50.780;6.084;2023-11-19T09:10:32;99026.94;;;13.94;88.04
9189;BME280;34313;50.780;6.084;2023-11-19T09:13:06;99029.09;;;14.00;88.16
9189;BME280;34313;50.780;6.084;2023-11-19T09:15:44;99040.28;;;14.15;87.78
9189;BME280;34313;50.780;6.084;2023-11-19T09:18:21;99033.69;;;14.42;87.23
9189;BME280;34313;50.780;6.084;2023-11-19T09:20:47;99033.75;;;14.19;86.68
9189;BME280;34313;50.780;6.084;2023-11-19T09:23:12;99038.44;;;14.27;86.70
9189;BME280;34313;50.780;6.084;2023-11-19T09:25:38;99052.19;;;14.32;86.40
9189;BME280;34313;50.780;6.084;2023-11-19T09:28:03;99040.59;;;14.33;86.25
9189;BME280;34313;50.780;6.084;2023-11-19T09:30:29;99054.63;;;14.56;85.87
9189;BME280;34313;50.780;6.084;2023-11-19T09:32:54;99039.84;;;14.43;85.61
9189;BME280;34313;50.780;6.084;2023-11-19T09:35:19;99039.88;;;14.75;84.35
9189;BME280;34313;50.780;6.084;2023-11-19T09:37:45;99048.53;;;15.09;83.08
9189;BME280;34313;50.780;6.084;2023-11-19T09:40:10;99071.50;;;14.99;83.08
9189;BME280;34313;50.780;6.084;2023-11-19T09:42:44;99031.97;;;14.85;82.81
9189;BME280;34313;50.780;6.084;2023-11-19T09:45:17;99036.41;;;14.74;82.44
9189;BME280;34313;50.780;6.084;2023-11-19T09:47:51;99036.84;;;14.80;82.70
9189;BME280;34313;50.780;6.084;2023-11-19T09:50:20;99049.38;;;14.78;82.72
9189;BME280;34313;50.780;6.084;2023-11-19T09:52:46;99048.56;;;14.98;82.00
9189;BME280;34313;50.780;6.084;2023-11-19T09:55:12;99039.66;;;14.99;81.20
9189;BME280;34313;50.780;6.084;2023-11-19T09:57:40;99039.78;;;14.98;81.63
9189;BME280;34313;50.780;6.084;2023-11-19T10:00:10;99048.94;;;15.15;81.47
9189;BME280;34313;50.780;6.084;2023-11-19T10:02:37;99032.13;;;14.83;81.54
9189;BME280;34313;50.780;6.084;2023-11-19T10:05:09;99033.59;;;14.76;82.35
9189;BME280;34313;50.780;6.084;2023-11-19T10:11:02;99004.38;;;14.87;81.19
9189;BME280;34313;50.780;6.084;2023-11-19T10:13:37;98985.09;;;14.64;81.43
9189;BME280;34313;50.780;6.084;2023-11-19T10:17:00;99018.66;;;14.75;81.75
9189;BME280;34313;50.780;6.084;2023-11-19T10:23:50;98987.88;;;14.84;80.68
9189;BME280;34313;50.780;6.084;2023-11-19T10:27:06;99030.03;;;14.66;81.71
9189;BME280;34313;50.780;6.084;2023-11-19T10:40:00;99042.16;;;14.80;81.21
9189;BME280;34313;50.780;6.084;2023-11-19T10:43:07;99031.09;;;14.74;81.56
9189;BME280;34313;50.780;6.084;2023-11-19T10:46:12;99036.84;;;14.80;81.48
9189;BME280;34313;50.780;6.084;2023-11-19T10:49:07;98997.75;;;14.49;81.26
9189;BME280;34313;50.780;6.084;2023-11-19T10:51:33;99023.03;;;14.21;82.66
9189;BME280;34313;50.780;6.084;2023-11-19T10:54:03;99012.59;;;13.97;84.59
9189;BME280;34313;50.780;6.084;2023-11-19T10:56:53;99017.56;;;13.90;86.78
9189;BME280;34313;50.780;6.084;2023-11-19T10:59:23;99056.19;;;14.04;88.57
9189;BME280;34313;50.780;6.084;2023-11-19T11:01:56;98998.66;;;13.50;90.15
9189;BME280;34313;50.780;6.084;2023-11-19T11:10:53;98986.75;;;13.44;92.33
9189;BME280;34313;50.780;6.084;2023-11-19T11:13:30;98989.88;;;13.72;92.09
9189;BME280;34313;50.780;6.084;2023-11-19T11:16:04;99025.03;;;13.74;92.29
9189;BME280;34313;50.780;6.084;2023-11-19T11:18:39;99036.47;;;13.63;92.55
9189;BME280;34313;50.780;6.084;2023-11-19T11:21:08;99029.50;;;13.51;92.76
9189;BME280;34313;50.780;6.084;2023-11-19T11:33:10;98997.78;;;13.15;94.95
9189;BME280;34313;50.780;6.084;2023-11-19T11:39:22;98993.66;;;12.89;96.58
9189;BME280;34313;50.780;6.084;2023-11-19T11:45:07;99001.22;;;12.93;96.84
9189;BME280;34313;50.780;6.084;2023-11-19T11:50:12;99005.69;;;12.93;96.48
9189;BME280;34313;50.780;6.084;2023-11-19T11:55:27;98992.94;;;13.09;95.46
9189;BME280;34313;50.780;6.084;2023-11-19T11:57:56;98990.22;;;13.22;95.37
9189;BME280;34313;50.780;6.084;2023-11-19T12:00:22;98996.03;;;13.38;95.14
9189;BME280;34313;50.780;6.084;2023-11-19T12:02:51;98989.63;;;13.41;95.05
9189;BME280;34313;50.780;6.084;2023-11-19T12:05:21;98944.03;;;13.26;95.05
9189;BME280;34313;50.780;6.084;2023-11-19T12:10:30;98991.78;;;13.92;92.75
9189;BME280;34313;50.780;6.084;2023-11-19T12:13:07;98983.03;;;14.13;92.08
9189;BME280;34313;50.780;6.084;2023-11-19T12:18:29;98923.91;;;14.12;90.78
9189;BME280;34313;50.780;6.084;2023-11-19T12:20:56;98971.88;;;14.42;90.22
9189;BME280;34313;50.780;6.084;2023-11-19T12:23:32;98941.63;;;14.12;90.33
9189;BME280;34313;50.780;6.084;2023-11-19T12:25:58;98945.88;;;14.03;91.37
9189;BME280;34313;50.780;6.084;2023-11-19T12:28:24;98961.94;;;13.90;92.10
9189;BME280;34313;50.780;6.084;2023-11-19T12:30:52;98964.81;;;13.87;92.97
9189;BME280;34313;50.780;6.084;2023-11-19T12:33:19;98950.28;;;13.70;93.11
9189;BME280;34313;50.780;6.084;2023-11-19T12:35:46;98982.66;;;13.74;92.89
9189;BME280;34313;50.780;6.084;2023-11-19T12:40:50;98957.63;;;13.78;91.31
9189;BME280;34313;50.780;6.084;2023-11-19T12:43:36;98914.06;;;13.59;93.44
9189;BME280;34313;50.780;6.084;2023-11-19T12:46:33;98911.53;;;13.58;91.39
9189;BME280;34313;50.780;6.084;2023-11-19T12:49:01;98944.72;;;13.85;90.41
9189;BME280;34313;50.780;6.084;2023-11-19T12:51:33;98949.88;;;13.86;89.23
9189;BME280;34313;50.780;6.084;2023-11-19T12:53:58;98957.72;;;13.88;88.68
9189;BME280;34313;50.780;6.084;2023-11-19T12:56:24;98953.63;;;13.84;88.71
9189;BME280;34313;50.780;6.084;2023-11-19T12:58:50;98956.41;;;13.71;88.94
9189;BME280;34313;50.780;6.084;2023-11-19T13:01:19;98946.19;;;13.55;88.80
9189;BME280;34313;50.780;6.084;2023-11-19T13:03:45;98949.59;;;13.57;88.62
9189;BME280;34313;50.780;6.084;2023-11-19T13:06:12;98959.91;;;13.37;89.25
9189;BME280;34313;50.780;6.084;2023-11-19T13:08:45;98948.97;;;13.31;89.95
9189;BME280;34313;50.780;6.084;2023-11-19T13:11:12;98949.56;;;13.23;89.93
9189;BME280;34313;50.780;6.084;2023-11-19T13:13:57;98958.44;;;13.11;90.34
9189;BME280;34313;50.780;6.084;2023-11-19T13:16:25;98938.00;;;13.01;90.67
9189;BME280;34313;50.780;6.084;2023-11-19T13:18:51;98933.44;;;13.15;90.18
9189;BME280;34313;50.780;6.084;2023-11-19T13:21:16;98941.03;;;13.31;88.42
9189;BME280;34313;50.780;6.084;2023-11-19T13:23:42;98932.22;;;13.30;88.27
9189;BME280;34313;50.780;6.084;2023-11-19T13:26:08;98920.09;;;13.39;87.90
9189;BME280;34313;50.780;6.084;2023-11-19T13:28:34;98938.13;;;13.56;86.44
9189;BME280;34313;50.780;6.084;2023-11-19T13:30:59;98933.56;;;13.58;86.43
9189;BME280;34313;50.780;6.084;2023-11-19T13:33:25;98938.03;;;13.69;85.14
9189;BME280;34313;50.780;6.084;2023-11-19T13:35:51;98939.09;;;13.67;84.77
9189;BME280;34313;50.780;6.084;2023-11-19T13:38:16;98930.91;;;13.58;85.60
9189;BME280;34313;50.780;6.084;2023-11-19T13:41:11;98920.72;;;13.54;85.44
9189;BME280;34313;50.780;6.084;2023-11-19T13:43:37;98904.81;;;13.54;85.12
9189;BME280;34313;50.780;6.084;2023-11-19T13:46:11;98938.03;;;13.58;85.74
9189;BME280;34313;50.780;6.084;2023-11-19T13:48:37;98923.59;;;13.51;86.19
9189;BME280;34313;50.780;6.084;2023-11-19T13:51:02;98891.34;;;13.23;86.31
9189;BME280;34313;50.780;6.084;2023-11-19T13:53:28;98924.56;;;13.27;86.59
9189;BME280;34313;50.780;6.084;2023-11-19T13:55:53;98936.50;;;13.33;86.55
9189;BME280;34313;50.780;6.084;2023-11-19T13:58:19;98923.03;;;13.36;85.99
9189;BME280;34313;50.780;6.084;2023-11-19T14:00:45;98932.63;;;13.37;86.51
9189;BME280;34313;50.780;6.084;2023-11-19T14:03:10;98940.44;;;13.38;86.50
9189;BME280;34313;50.780;6.084;2023-11-19T14:05:37;98923.22;;;13.21;86.73